createdAt,value
2022-09-04T00:01:11.568Z,69.60
2022-09-04T00:04:40.803Z,70.08
2022-09-04T00:08:10.374Z,70.32
2022-09-04T00:11:42.224Z,70.66
2022-09-04T00:14:57.926Z,71.00
2022-09-04T00:18:18.744Z,71.27
2022-09-04T00:21:44.068Z,71.43
2022-09-04T00:25:12.232Z,71.93
2022-09-04T00:28:37.318Z,71.60
2022-09-04T00:31:55.398Z,71.78
2022-09-04T00:35:16.310Z,71.91
2022-09-04T00:38:50.080Z,71.84
2022-09-04T00:42:26.412Z,71.31
2022-09-04T00:45:53.667Z,71.24
2022-09-04T00:49:36.710Z,71.17
2022-09-04T00:53:11.834Z,71.21
2022-09-04T00:56:55.802Z,71.02
2022-09-04T01:00:17.025Z,70.76
2022-09-04T01:03:46.201Z,70.84
2022-09-04T01:07:26.912Z,70.73
2022-09-04T01:10:50.424Z,70.63
2022-09-04T01:14:25.596Z,70.63
2022-09-04T01:17:54.585Z,70.31
2022-09-04T01:21:34.702Z,70.84
2022-09-04T01:25:08.729Z,71.18
2022-09-04T01:28:32.677Z,71.70
2022-09-04T01:31:56.093Z,71.65
2022-09-04T01:35:18.350Z,71.46
2022-09-04T01:38:42.333Z,71.15
2022-09-04T01:42:03.936Z,71.33
2022-09-04T01:45:22.340Z,70.68
2022-09-04T01:48:45.386Z,70.61
2022-09-04T01:52:26.079Z,70.58
2022-09-04T01:55:46.192Z,70.60
2022-09-04T01:59:05.003Z,70.54
2022-09-04T02:02:29.560Z,70.80
2022-09-04T02:05:55.283Z,70.62
2022-09-04T02:09:26.420Z,70.11
2022-09-04T02:12:51.316Z,70.36
2022-09-04T02:16:16.403Z,70.34
2022-09-04T02:19:44.854Z,69.83
2022-09-04T02:23:13.963Z,69.45
2022-09-04T02:26:31.544Z,69.62
2022-09-04T02:29:51.757Z,69.15
2022-09-04T02:33:15.380Z,69.41
2022-09-04T02:36:40.624Z,70.00
2022-09-04T02:40:06.209Z,70.65
2022-09-04T02:43:37.643Z,71.07
2022-09-04T02:47:07.998Z,71.23
2022-09-04T02:50:39.183Z,71.84
2022-09-04T02:54:06.005Z,71.53
2022-09-04T02:57:39.647Z,71.55
2022-09-04T03:00:59.745Z,71.14
2022-09-04T03:04:18.561Z,71.08
2022-09-04T03:07:35.986Z,71.12
2022-09-04T03:10:56.617Z,70.83
2022-09-04T03:14:12.839Z,71.60
2022-09-04T03:17:31.083Z,71.87
2022-09-04T03:20:49.667Z,71.42
2022-09-04T03:24:08.041Z,71.00
2022-09-04T03:27:21.863Z,71.19
2022-09-04T03:30:30.610Z,71.42
2022-09-04T03:33:48.745Z,71.08
2022-09-04T03:37:21.468Z,71.43
2022-09-04T03:40:49.627Z,72.04
2022-09-04T03:44:27.950Z,71.87
2022-09-04T03:47:57.847Z,71.65
2022-09-04T03:51:24.604Z,72.02
2022-09-04T03:55:11.435Z,72.21
2022-09-04T03:58:31.271Z,71.10
2022-09-04T04:01:59.838Z,71.49
2022-09-04T04:05:39.963Z,71.39
2022-09-04T04:09:24.180Z,71.38
2022-09-04T04:13:12.652Z,72.51
2022-09-04T04:16:55.978Z,72.53
2022-09-04T04:20:32.557Z,72.46
2022-09-04T04:24:22.481Z,71.67
2022-09-04T04:27:58.259Z,71.85
2022-09-04T04:31:23.254Z,71.72
2022-09-04T04:34:48.721Z,72.18
2022-09-04T04:38:21.143Z,72.10
2022-09-04T04:42:18.540Z,71.50
2022-09-04T04:45:55.183Z,70.71
2022-09-04T04:49:29.145Z,71.03
2022-09-04T04:52:56.355Z,71.02
2022-09-04T04:56:16.919Z,70.72
2022-09-04T04:59:38.083Z,70.28
2022-09-04T05:03:07.951Z,69.89
2022-09-04T05:06:29.333Z,69.46
2022-09-04T05:09:50.963Z,68.91
2022-09-04T05:13:18.647Z,69.63
2022-09-04T05:16:51.105Z,69.19
2022-09-04T05:20:39.393Z,69.08
2022-09-04T05:24:01.081Z,68.98
2022-09-04T05:27:44.824Z,68.36
2022-09-04T05:31:07.718Z,68.80
2022-09-04T05:34:30.449Z,68.74
2022-09-04T05:37:53.717Z,69.66
2022-09-04T05:41:15.301Z,69.15
2022-09-04T05:44:54.581Z,69.40
2022-09-04T05:48:26.435Z,68.69
2022-09-04T05:51:58.105Z,68.65
2022-09-04T05:55:54.677Z,68.95
2022-09-04T05:59:44.282Z,69.08
2022-09-04T06:03:36.812Z,69.14
2022-09-04T06:07:00.094Z,68.25
2022-09-04T06:10:22.208Z,68.61
2022-09-04T06:14:11.335Z,68.89
2022-09-04T06:17:45.682Z,68.61
2022-09-04T06:21:37.126Z,68.63
2022-09-04T06:25:27.359Z,68.13
2022-09-04T06:29:20.803Z,64.99
2022-09-04T06:32:59.102Z,64.06
2022-09-04T06:36:53.751Z,63.63
2022-09-04T06:40:28.589Z,64.13
2022-09-04T06:43:50.199Z,65.15
2022-09-04T06:47:31.748Z,64.85
2022-09-04T06:50:59.154Z,63.96
2022-09-04T06:54:32.105Z,63.46
2022-09-04T06:58:24.993Z,62.86
2022-09-04T07:01:51.059Z,62.90
2022-09-04T07:05:19.985Z,61.59
2022-09-04T07:08:57.771Z,63.04
2022-09-04T07:12:43.512Z,62.97
2022-09-04T07:16:26.078Z,61.89
2022-09-04T07:20:22.941Z,61.80
2022-09-04T07:23:50.943Z,62.73
2022-09-04T07:27:19.909Z,63.00
2022-09-04T07:30:38.796Z,62.96
2022-09-04T07:34:01.032Z,63.68
2022-09-04T07:37:23.644Z,63.91
2022-09-04T07:40:47.018Z,64.39
2022-09-04T07:44:13.327Z,65.70
2022-09-04T07:47:36.150Z,64.54
2022-09-04T07:51:05.067Z,65.40
2022-09-04T07:54:41.680Z,64.42
2022-09-04T07:58:25.073Z,63.33
2022-09-04T08:02:01.793Z,64.27
2022-09-04T08:05:34.671Z,66.23
2022-09-04T08:09:32.641Z,66.34
2022-09-04T08:13:14.352Z,66.00
2022-09-04T08:16:35.547Z,65.57
2022-09-04T08:19:56.185Z,66.41
2022-09-04T08:23:29.618Z,66.19
2022-09-04T08:26:51.020Z,67.48
2022-09-04T08:30:08.318Z,67.17
2022-09-04T08:33:49.566Z,67.20
2022-09-04T08:37:20.405Z,67.40
2022-09-04T08:41:19.059Z,67.15
2022-09-04T08:45:26.775Z,67.03
2022-09-04T08:49:21.570Z,66.52
2022-09-04T08:53:21.116Z,67.64
2022-09-04T08:56:48.695Z,68.89
2022-09-04T09:00:14.427Z,68.76
2022-09-04T09:04:12.466Z,68.41
2022-09-04T09:08:13.654Z,67.53
2022-09-04T09:12:12.825Z,69.06
2022-09-04T09:16:26.503Z,68.62
2022-09-04T09:19:57.981Z,68.77
2022-09-04T09:23:23.182Z,68.21
2022-09-04T09:26:31.954Z,68.58
2022-09-04T09:30:10.349Z,68.82
2022-09-04T09:34:02.716Z,69.53
2022-09-04T09:37:41.988Z,69.14
2022-09-04T09:41:42.208Z,68.89
2022-09-04T09:45:38.042Z,70.75
2022-09-04T09:49:44.815Z,70.21
2022-09-04T09:53:52.009Z,71.35
2022-09-04T09:57:52.552Z,71.99
2022-09-04T10:01:36.660Z,71.35
2022-09-04T10:05:30.313Z,72.55
2022-09-04T10:09:37.572Z,73.77
2022-09-04T10:13:37.450Z,72.44
2022-09-04T10:17:21.526Z,72.79
2022-09-04T10:21:26.534Z,73.29
2022-09-04T10:25:42.179Z,72.46
2022-09-04T10:29:29.546Z,74.38
2022-09-04T10:33:31.679Z,74.57
2022-09-04T10:36:57.562Z,74.56
2022-09-04T10:40:46.957Z,74.15
2022-09-04T10:44:33.435Z,73.99
2022-09-04T10:48:43.082Z,72.23
2022-09-04T10:52:58.040Z,70.90
2022-09-04T10:56:30.217Z,70.22
2022-09-04T11:00:05.615Z,69.66
2022-09-04T11:03:46.476Z,70.73
2022-09-04T11:07:30.531Z,70.94
2022-09-04T11:10:56.812Z,70.76
2022-09-04T11:14:52.395Z,70.30
2022-09-04T11:18:45.734Z,71.03
2022-09-04T11:22:51.873Z,71.97
2022-09-04T11:27:06.029Z,71.61
2022-09-04T11:30:20.612Z,73.04
2022-09-04T11:34:33.887Z,73.39
2022-09-04T11:38:11.837Z,72.68
2022-09-04T11:42:08.566Z,72.37
2022-09-04T11:45:59.878Z,70.77
2022-09-04T11:49:50.116Z,68.53
2022-09-04T11:54:00.613Z,67.75
2022-09-04T11:57:21.117Z,67.27
2022-09-04T12:00:28.608Z,67.91
2022-09-04T12:04:23.471Z,67.32
2022-09-04T12:07:51.990Z,67.32
2022-09-04T12:11:44.352Z,67.13
2022-09-04T12:15:55.934Z,66.86
2022-09-04T12:19:54.864Z,66.92
2022-09-04T12:23:35.562Z,68.41
2022-09-04T12:27:34.145Z,68.93
2022-09-04T12:31:09.162Z,69.17
2022-09-04T12:34:56.454Z,68.98
2022-09-04T12:38:37.829Z,68.46
2022-09-04T12:42:00.898Z,66.87
2022-09-04T12:45:24.716Z,64.73
2022-09-04T12:48:46.004Z,62.41
2022-09-04T12:52:10.914Z,60.57
2022-09-04T12:55:33.394Z,60.59
2022-09-04T12:59:18.974Z,61.24
2022-09-04T13:02:53.340Z,59.67
2022-09-04T13:06:27.451Z,56.85
2022-09-04T13:09:53.515Z,54.06
2022-09-04T13:13:21.537Z,55.80
2022-09-04T13:16:51.157Z,56.62
2022-09-04T13:20:19.322Z,57.62
2022-09-04T13:23:57.509Z,55.63
2022-09-04T13:27:36.509Z,57.91
2022-09-04T13:31:06.654Z,58.69
2022-09-04T13:34:29.555Z,58.49
2022-09-04T13:37:58.572Z,57.41
2022-09-04T13:41:51.389Z,57.22
2022-09-04T13:45:13.324Z,58.17
2022-09-04T13:48:42.777Z,58.67
2022-09-04T13:52:02.652Z,56.74
2022-09-04T13:55:21.434Z,58.53
2022-09-04T13:58:35.874Z,57.86
2022-09-04T14:01:52.002Z,58.06
2022-09-04T14:05:08.992Z,57.81
2022-09-04T14:08:21.430Z,57.89
2022-09-04T14:12:18.792Z,57.41
2022-09-04T14:16:02.056Z,57.59
2022-09-04T14:19:47.479Z,60.15
2022-09-04T14:23:13.417Z,60.62
2022-09-04T14:26:40.584Z,60.00
2022-09-04T14:30:17.346Z,58.73
2022-09-04T14:33:40.771Z,59.19
2022-09-04T14:37:00.335Z,58.10
2022-09-04T14:40:19.456Z,56.84
2022-09-04T14:43:59.667Z,57.14
2022-09-04T14:47:26.824Z,57.63
2022-09-04T14:50:46.708Z,57.38
2022-09-04T14:53:59.170Z,59.20
2022-09-04T14:57:21.419Z,60.74
2022-09-04T15:00:30.359Z,60.16
2022-09-04T15:03:49.161Z,59.77
2022-09-04T15:07:12.027Z,59.32
2022-09-04T15:10:47.957Z,57.77
2022-09-04T15:14:19.015Z,57.25
2022-09-04T15:17:40.955Z,56.96
2022-09-04T15:21:03.611Z,57.96
2022-09-04T15:24:31.173Z,57.34
2022-09-04T15:27:49.778Z,58.03
2022-09-04T15:31:18.702Z,58.36
2022-09-04T15:34:36.896Z,58.51
2022-09-04T15:37:48.348Z,59.53
2022-09-04T15:41:17.093Z,59.56
2022-09-04T15:44:30.580Z,60.23
2022-09-04T15:48:18.356Z,60.54
2022-09-04T15:51:44.565Z,60.05
2022-09-04T15:55:14.010Z,59.68
2022-09-04T15:58:34.525Z,59.21
2022-09-04T16:01:53.072Z,59.09
2022-09-04T16:05:20.565Z,60.69
2022-09-04T16:08:45.295Z,60.98
2022-09-04T16:12:12.620Z,62.27
2022-09-04T16:15:30.971Z,62.22
2022-09-04T16:18:58.958Z,61.69
2022-09-04T16:22:22.829Z,61.66
2022-09-04T16:25:38.610Z,61.19
2022-09-04T16:28:56.078Z,60.60
2022-09-04T16:32:02.725Z,60.52
2022-09-04T16:35:21.565Z,60.60
2022-09-04T16:38:39.598Z,61.62
2022-09-04T16:41:57.836Z,62.08
2022-09-04T16:45:15.662Z,61.53
2022-09-04T16:48:40.092Z,61.48
2022-09-04T16:51:58.916Z,61.18
2022-09-04T16:55:16.630Z,61.49
2022-09-04T16:58:54.930Z,61.79
2022-09-04T17:02:08.976Z,61.33
2022-09-04T17:05:35.243Z,61.92
2022-09-04T17:08:52.962Z,62.20
2022-09-04T17:12:24.620Z,62.88
2022-09-04T17:15:53.858Z,64.04
2022-09-04T17:19:02.904Z,64.85
2022-09-04T17:28:54.763Z,65.07
2022-09-04T17:29:16.888Z,65.50
2022-09-04T17:30:02.228Z,65.86
2022-09-04T17:40:40.547Z,66.29
2022-09-04T17:40:43.842Z,65.88
2022-09-04T17:41:35.844Z,66.32
2022-09-04T17:45:01.627Z,66.37
2022-09-04T17:48:27.123Z,67.02
2022-09-04T17:51:36.028Z,68.24
2022-09-04T17:54:48.896Z,70.18
2022-09-04T17:58:11.890Z,69.96
2022-09-04T18:01:29.513Z,69.80
2022-09-04T18:04:53.531Z,69.48
2022-09-04T18:08:12.136Z,69.60
2022-09-04T18:11:30.124Z,69.36
2022-09-04T18:15:25.268Z,69.49
2022-09-04T18:18:41.282Z,70.58
2022-09-04T18:22:26.460Z,70.77
2022-09-04T18:25:51.396Z,72.71
2022-09-04T18:29:55.151Z,73.44
2022-09-04T18:37:20.114Z,72.68
2022-09-04T18:37:23.206Z,72.00
2022-09-04T18:40:43.068Z,72.41
2022-09-04T18:50:23.755Z,73.31
2022-09-04T18:50:33.642Z,73.28
2022-09-04T18:51:30.886Z,73.33
2022-09-04T18:54:47.192Z,72.09
2022-09-04T18:58:21.023Z,72.46
2022-09-04T19:01:47.312Z,71.67
2022-09-04T19:05:00.600Z,72.21
2022-09-04T19:08:16.012Z,72.62
2022-09-04T19:11:34.483Z,71.65
2022-09-04T19:14:49.319Z,71.28
2022-09-04T19:18:08.660Z,70.73
2022-09-04T19:21:41.801Z,70.55
2022-09-04T19:25:08.688Z,70.35
2022-09-04T19:28:21.954Z,69.01
2022-09-04T19:31:41.991Z,69.01
2022-09-04T19:35:06.565Z,68.47
2022-09-04T19:42:10.801Z,68.45
2022-09-04T19:46:01.427Z,69.17
2022-09-04T19:46:26.266Z,68.33
2022-09-04T19:53:12.854Z,68.92
2022-09-04T19:53:33.441Z,68.52
2022-09-04T19:56:56.632Z,68.40
2022-09-04T20:00:42.302Z,67.50
2022-09-04T20:03:54.402Z,68.45
2022-09-04T20:07:09.302Z,68.00
2022-09-04T20:10:30.982Z,68.83
2022-09-04T20:13:50.707Z,68.53
2022-09-04T20:17:22.325Z,69.26
2022-09-04T20:20:56.446Z,68.90
2022-09-04T20:24:17.575Z,69.17
2022-09-04T20:27:37.935Z,69.44
2022-09-04T20:31:03.883Z,69.70
2022-09-04T20:34:49.729Z,69.83
2022-09-04T20:38:23.190Z,69.44
2022-09-04T20:41:50.556Z,69.53
2022-09-04T20:47:46.287Z,68.70
2022-09-04T20:52:54.190Z,69.04
2022-09-04T20:53:09.583Z,68.90
2022-09-04T20:57:48.295Z,69.17
2022-09-04T21:03:08.102Z,68.78
2022-09-04T21:04:05.660Z,68.91
2022-09-04T21:07:29.937Z,69.36
2022-09-04T21:10:47.176Z,69.68
2022-09-04T21:14:02.281Z,69.97
2022-09-04T21:18:08.493Z,70.52
2022-09-04T21:21:52.731Z,71.57
2022-09-04T21:25:33.793Z,71.90
2022-09-04T21:29:27.831Z,72.45
2022-09-04T21:32:58.682Z,72.47
2022-09-04T21:36:36.150Z,72.08
2022-09-04T21:40:51.286Z,72.04
2022-09-04T21:44:34.683Z,71.19
2022-09-04T21:48:25.618Z,70.51
2022-09-04T21:52:21.181Z,71.12
2022-09-04T21:57:50.459Z,71.94
2022-09-04T22:02:43.461Z,71.66
2022-09-04T22:03:42.472Z,72.31
2022-09-04T22:10:21.701Z,72.06
2022-09-04T22:13:29.612Z,72.19
2022-09-04T22:14:50.488Z,71.92
2022-09-04T22:18:57.483Z,71.71
2022-09-04T22:22:36.063Z,72.51
2022-09-04T22:26:08.556Z,72.38
2022-09-04T22:30:08.526Z,72.20
2022-09-04T22:34:15.650Z,72.37
2022-09-04T22:38:14.961Z,72.15
2022-09-04T22:42:20.294Z,71.86
2022-09-04T22:46:30.748Z,71.99
2022-09-04T22:50:11.964Z,71.75
2022-09-04T22:54:09.801Z,71.39
2022-09-04T22:57:27.507Z,71.30
2022-09-04T23:01:03.316Z,71.85
2022-09-04T23:04:53.468Z,71.65
2022-09-04T23:13:49.353Z,71.98
2022-09-04T23:14:01.605Z,71.48
2022-09-04T23:17:09.529Z,71.24
2022-09-04T23:26:32.321Z,71.07
2022-09-04T23:26:45.336Z,70.09
2022-09-04T23:28:57.800Z,70.48
2022-09-04T23:32:36.824Z,69.72
2022-09-04T23:36:04.376Z,69.48
2022-09-04T23:40:02.201Z,68.62
2022-09-04T23:44:09.417Z,68.10
2022-09-04T23:47:56.045Z,68.64
2022-09-04T23:51:26.180Z,68.91
2022-09-04T23:55:15.646Z,69.32
2022-09-04T23:59:10.618Z,69.11
